createdAt,value
2018-06-02T00:01:04.243Z,68.83
2018-06-02T00:03:32.744Z,75.97
2018-06-02T00:06:00.450Z,60.50
2018-06-02T00:08:28.019Z,74.20
2018-06-02T00:10:55.718Z,77.47
2018-06-02T00:13:23.371Z,60.67
2018-06-02T00:15:51.150Z,73.60
2018-06-02T00:18:19.004Z,62.00
2018-06-02T00:20:46.758Z,60.60
2018-06-02T00:23:14.533Z,68.17
2018-06-02T00:25:42.235Z,67.63
2018-06-02T00:28:09.964Z,74.13
2018-06-02T00:30:37.567Z,70.10
2018-06-02T00:33:05.745Z,70.50
2018-06-02T00:35:33.535Z,73.17
2018-06-02T00:38:04.860Z,68.23
2018-06-02T00:40:32.611Z,72.67
2018-06-02T00:43:00.283Z,69.70
2018-06-02T00:45:27.967Z,72.00
2018-06-02T00:47:55.740Z,78.67
2018-06-02T00:50:23.512Z,75.20
2018-06-02T00:52:51.244Z,74.90
2018-06-02T00:55:19.712Z,80.37
2018-06-02T00:57:47.571Z,73.13
2018-06-02T01:00:15.167Z,74.30
2018-06-02T01:02:42.774Z,80.40
2018-06-02T01:05:10.409Z,78.83
2018-06-02T01:07:38.016Z,78.97
2018-06-02T01:10:05.607Z,88.73
2018-06-02T01:12:33.214Z,105.83
2018-06-02T01:15:00.820Z,101.47
2018-06-02T01:17:28.390Z,107.90
2018-06-02T01:19:56.058Z,86.50
2018-06-02T01:22:23.659Z,102.97
2018-06-02T01:24:51.251Z,104.27
2018-06-02T01:27:19.584Z,110.97
2018-06-02T01:29:47.211Z,107.67
2018-06-02T01:32:14.825Z,113.43
2018-06-02T01:34:42.390Z,100.63
2018-06-02T01:37:09.988Z,104.30
2018-06-02T01:39:37.600Z,103.50
2018-06-02T01:42:05.200Z,89.83
2018-06-02T01:44:32.749Z,90.97
2018-06-02T01:47:00.343Z,97.80
2018-06-02T01:49:27.972Z,94.83
2018-06-02T01:51:55.557Z,92.13
2018-06-02T01:54:23.157Z,92.30
2018-06-02T01:56:50.712Z,93.47
2018-06-02T01:59:18.306Z,98.30
2018-06-02T02:01:45.888Z,91.47
2018-06-02T02:04:13.528Z,93.20
2018-06-02T02:06:41.120Z,91.07
2018-06-02T02:09:08.692Z,96.37
2018-06-02T02:11:38.197Z,82.27
2018-06-02T02:14:05.779Z,87.83
2018-06-02T02:16:34.199Z,86.13
2018-06-02T02:19:01.808Z,77.30
2018-06-02T02:21:29.384Z,87.53
2018-06-02T02:23:57.752Z,103.00
2018-06-02T02:26:26.104Z,102.30
2018-06-02T02:28:53.680Z,99.63
2018-06-02T02:31:21.279Z,98.57
2018-06-02T02:33:48.869Z,98.07
2018-06-02T02:36:16.457Z,104.27
2018-06-02T02:38:44.099Z,106.03
2018-06-02T02:41:11.731Z,97.00
2018-06-02T02:43:39.367Z,105.37
2018-06-02T02:46:06.955Z,112.97
2018-06-02T02:48:34.542Z,111.17
2018-06-02T02:51:02.129Z,106.03
2018-06-02T02:53:29.760Z,95.60
2018-06-02T02:55:57.335Z,102.27
2018-06-02T02:58:25.692Z,96.57
2018-06-02T03:00:54.290Z,105.00
2018-06-02T03:03:21.898Z,101.27
2018-06-02T03:05:49.453Z,102.97
2018-06-02T03:08:17.144Z,107.90
2018-06-02T03:10:44.768Z,100.07
2018-06-02T03:13:12.403Z,98.73
2018-06-02T03:15:40.783Z,75.10
2018-06-02T03:18:09.094Z,79.50
2018-06-02T03:20:36.701Z,85.40
2018-06-02T03:23:04.267Z,77.10
2018-06-02T03:25:32.622Z,81.97
2018-06-02T03:28:00.168Z,77.00
2018-06-02T03:30:27.791Z,75.83
2018-06-02T03:32:55.380Z,70.73
2018-06-02T03:35:23.016Z,64.10
2018-06-02T03:37:50.572Z,67.50
2018-06-02T03:40:18.164Z,63.23
2018-06-02T03:42:45.760Z,57.13
2018-06-02T03:45:14.153Z,63.13
2018-06-02T03:47:41.740Z,59.90
2018-06-02T03:50:09.349Z,60.80
2018-06-02T03:52:37.018Z,63.53
2018-06-02T03:55:05.403Z,51.03
2018-06-02T03:57:33.005Z,59.30
2018-06-02T04:00:04.292Z,63.47
2018-06-02T04:02:31.914Z,56.77
2018-06-02T04:04:59.538Z,55.80
2018-06-02T04:07:27.162Z,55.70
2018-06-02T04:09:58.113Z,52.73
2018-06-02T04:12:26.467Z,53.20
2018-06-02T04:14:54.050Z,53.40
2018-06-02T04:17:22.395Z,52.50
2018-06-02T04:19:49.952Z,53.27
2018-06-02T04:22:17.560Z,54.50
2018-06-02T04:24:45.131Z,51.47
2018-06-02T04:27:12.736Z,51.37
2018-06-02T04:29:40.295Z,51.67
2018-06-02T04:32:07.903Z,47.17
2018-06-02T04:34:35.471Z,47.87
2018-06-02T04:37:03.150Z,45.67
2018-06-02T04:39:30.710Z,40.90
2018-06-02T04:41:58.291Z,44.23
2018-06-02T04:44:25.898Z,41.23
2018-06-02T04:46:53.479Z,46.57
2018-06-02T04:49:21.065Z,40.13
2018-06-02T04:51:48.675Z,39.67
2018-06-02T04:54:16.270Z,41.50
2018-06-02T04:56:43.874Z,42.63
2018-06-02T04:59:11.465Z,38.70
2018-06-02T05:01:39.127Z,40.20
2018-06-02T05:04:06.788Z,40.57
2018-06-02T05:06:34.370Z,42.63
2018-06-02T05:09:01.937Z,42.17
2018-06-02T05:11:29.496Z,41.23
2018-06-02T05:13:57.094Z,42.60
2018-06-02T05:16:24.716Z,38.47
2018-06-02T05:18:52.301Z,41.77
2018-06-02T05:21:20.670Z,39.87
2018-06-02T05:23:49.039Z,40.70
2018-06-02T05:26:16.603Z,47.87
2018-06-02T05:28:44.935Z,44.30
2018-06-02T05:31:12.571Z,39.37
2018-06-02T05:33:40.145Z,44.67
2018-06-02T05:36:07.726Z,46.83
2018-06-02T05:38:35.290Z,41.87
2018-06-02T05:41:02.877Z,39.60
2018-06-02T05:43:31.198Z,46.17
2018-06-02T05:45:58.819Z,41.83
2018-06-02T05:48:26.326Z,42.17
2018-06-02T05:50:53.953Z,43.30
2018-06-02T05:53:21.562Z,44.10
2018-06-02T05:55:49.167Z,45.73
2018-06-02T05:58:16.732Z,44.80
2018-06-02T06:00:44.292Z,44.60
2018-06-02T06:03:11.913Z,44.47
2018-06-02T06:05:39.528Z,46.20
2018-06-02T06:08:07.165Z,44.83
2018-06-02T06:10:34.752Z,41.80
2018-06-02T06:13:02.376Z,42.27
2018-06-02T06:15:30.002Z,44.93
2018-06-02T06:17:58.443Z,43.37
2018-06-02T06:20:26.045Z,46.27
2018-06-02T06:22:53.638Z,45.77
2018-06-02T06:25:21.234Z,45.73
2018-06-02T06:27:48.881Z,48.20
2018-06-02T06:30:16.504Z,49.40
2018-06-02T06:32:47.339Z,50.47
2018-06-02T06:35:14.930Z,51.77
2018-06-02T06:37:42.472Z,50.20
2018-06-02T06:40:10.089Z,52.53
2018-06-02T06:42:37.677Z,52.13
2018-06-02T06:45:05.308Z,49.50
2018-06-02T06:47:32.901Z,53.17
2018-06-02T06:50:00.471Z,52.37
2018-06-02T06:52:28.097Z,53.17
2018-06-02T06:54:56.448Z,53.30
2018-06-02T06:57:24.067Z,52.00
2018-06-02T06:59:51.688Z,51.77
2018-06-02T07:02:19.255Z,52.10
2018-06-02T07:04:47.616Z,54.67
2018-06-02T07:07:15.261Z,52.07
2018-06-02T07:09:42.898Z,49.20
2018-06-02T07:12:10.522Z,49.80
2018-06-02T07:14:38.881Z,47.47
2018-06-02T07:17:06.519Z,47.67
2018-06-02T07:19:34.110Z,52.37
2018-06-02T07:22:02.546Z,52.27
2018-06-02T07:24:30.179Z,53.17
2018-06-02T07:26:57.785Z,49.10
2018-06-02T07:29:25.397Z,54.27
2018-06-02T07:31:53.055Z,54.27
2018-06-02T07:34:20.710Z,55.13
2018-06-02T07:36:48.307Z,52.83
2018-06-02T07:39:16.010Z,50.77
2018-06-02T07:41:44.366Z,54.83
2018-06-02T07:44:11.964Z,52.60
2018-06-02T07:46:39.557Z,52.93
2018-06-02T07:49:07.161Z,56.00
2018-06-02T07:51:35.506Z,52.17
2018-06-02T07:54:03.089Z,53.40
2018-06-02T07:56:31.465Z,49.03
2018-06-02T07:58:59.143Z,47.50
2018-06-02T08:01:26.786Z,47.90
2018-06-02T08:03:55.156Z,51.57
2018-06-02T08:06:22.783Z,50.77
2018-06-02T08:08:50.360Z,49.27
2018-06-02T08:11:18.000Z,52.73
2018-06-02T08:13:45.584Z,45.07
2018-06-02T08:16:13.277Z,50.20
2018-06-02T08:18:41.633Z,51.60
2018-06-02T08:21:09.968Z,56.00
2018-06-02T08:23:37.584Z,52.87
2018-06-02T08:26:06.001Z,50.93
2018-06-02T08:28:33.612Z,56.87
2018-06-02T08:31:01.352Z,57.07
2018-06-02T08:33:29.047Z,49.00
2018-06-02T08:35:56.599Z,57.37
2018-06-02T08:38:24.215Z,56.47
2018-06-02T08:40:51.781Z,57.67
2018-06-02T08:43:19.419Z,56.20
2018-06-02T08:45:47.024Z,58.20
2018-06-02T08:48:14.656Z,55.03
2018-06-02T08:50:42.305Z,54.33
2018-06-02T08:53:09.947Z,54.90
2018-06-02T08:55:38.597Z,56.83
2018-06-02T08:58:07.042Z,54.73
2018-06-02T09:00:34.644Z,56.80
2018-06-02T09:03:03.045Z,59.80
2018-06-02T09:05:30.619Z,53.93
2018-06-02T09:07:58.289Z,58.40
2018-06-02T09:10:25.887Z,45.37
2018-06-02T09:12:54.304Z,56.03
2018-06-02T09:15:22.861Z,55.50
2018-06-02T09:17:51.253Z,58.83
2018-06-02T09:20:18.833Z,57.27
2018-06-02T09:22:46.464Z,58.77
2018-06-02T09:25:14.027Z,53.80
2018-06-02T09:27:41.684Z,52.97
2018-06-02T09:30:09.239Z,51.80
2018-06-02T09:32:37.734Z,51.73
2018-06-02T09:35:05.387Z,47.80
2018-06-02T09:37:32.916Z,46.23
2018-06-02T09:40:01.277Z,55.20
2018-06-02T09:42:29.007Z,49.93
2018-06-02T09:44:56.570Z,50.40
2018-06-02T09:47:24.205Z,42.20
2018-06-02T09:49:51.855Z,50.37
2018-06-02T09:52:19.436Z,46.17
2018-06-02T09:54:47.028Z,47.73
2018-06-02T09:57:14.635Z,43.23
2018-06-02T09:59:42.218Z,49.50
2018-06-02T10:02:09.867Z,47.90
2018-06-02T10:04:37.475Z,43.97
2018-06-02T10:07:05.076Z,47.17
2018-06-02T10:09:32.692Z,45.40
2018-06-02T10:12:00.308Z,46.03
2018-06-02T10:14:27.872Z,44.30
2018-06-02T10:16:55.455Z,44.80
2018-06-02T10:19:23.047Z,40.60
2018-06-02T10:21:51.392Z,44.03
2018-06-02T10:24:18.962Z,41.40
2018-06-02T10:26:46.613Z,35.40
2018-06-02T10:29:14.241Z,41.03
2018-06-02T10:31:41.814Z,40.30
2018-06-02T10:34:09.419Z,40.80
2018-06-02T10:36:37.765Z,37.20
2018-06-02T10:39:05.378Z,37.70
2018-06-02T10:41:32.939Z,34.70
2018-06-02T10:44:00.594Z,39.43
2018-06-02T10:46:28.214Z,40.20
2018-06-02T10:48:55.864Z,40.57
2018-06-02T10:51:23.439Z,33.73
2018-06-02T10:53:51.069Z,36.10
2018-06-02T10:56:18.896Z,41.40
2018-06-02T10:58:46.527Z,38.50
2018-06-02T11:01:14.116Z,41.10
2018-06-02T11:03:41.720Z,40.40
2018-06-02T11:06:09.292Z,39.10
2018-06-02T11:08:36.962Z,39.17
2018-06-02T11:11:05.294Z,42.10
2018-06-02T11:13:32.895Z,41.13
2018-06-02T11:16:00.469Z,39.60
2018-06-02T11:18:28.947Z,41.67
2018-06-02T11:20:57.332Z,40.90
2018-06-02T11:23:24.973Z,43.03
2018-06-02T11:25:52.616Z,49.03
2018-06-02T11:28:20.362Z,45.40
2018-06-02T11:30:47.996Z,51.90
2018-06-02T11:33:15.664Z,49.53
2018-06-02T11:35:43.255Z,45.90
2018-06-02T11:38:10.872Z,45.57
2018-06-02T11:40:38.435Z,48.23
2018-06-02T11:43:06.054Z,49.13
2018-06-02T11:45:33.630Z,45.73
2018-06-02T11:48:01.215Z,47.20
2018-06-02T11:50:28.816Z,46.57
2018-06-02T11:52:56.495Z,44.87
2018-06-02T11:55:24.892Z,50.40
2018-06-02T11:57:52.542Z,44.77
2018-06-02T12:00:20.929Z,47.03
2018-06-02T12:02:48.545Z,47.07
2018-06-02T12:05:16.144Z,43.77
2018-06-02T12:07:43.831Z,45.50
2018-06-02T12:10:11.428Z,47.57
2018-06-02T12:12:39.034Z,46.00
2018-06-02T12:15:06.659Z,44.40
2018-06-02T12:17:34.265Z,44.23
2018-06-02T12:20:01.858Z,30.77
2018-06-02T12:22:29.571Z,44.90
2018-06-02T12:24:57.223Z,41.80
2018-06-02T12:27:24.795Z,44.10
2018-06-02T12:29:52.436Z,43.00
2018-06-02T12:32:20.778Z,43.17
2018-06-02T12:34:48.380Z,40.40
2018-06-02T12:37:16.723Z,40.70
2018-06-02T12:39:44.347Z,38.50
2018-06-02T12:42:11.919Z,38.43
2018-06-02T12:44:39.511Z,37.57
2018-06-02T12:47:07.876Z,33.80
2018-06-02T12:49:35.515Z,36.80
2018-06-02T12:52:03.110Z,38.70
2018-06-02T12:54:31.495Z,33.70
2018-06-02T12:56:59.820Z,32.27
2018-06-02T12:59:28.302Z,34.13
2018-06-02T13:01:55.884Z,32.63
2018-06-02T13:04:23.547Z,34.17
2018-06-02T13:06:51.185Z,30.70
2018-06-02T13:09:18.819Z,31.63
2018-06-02T13:11:46.419Z,30.90
2018-06-02T13:14:14.009Z,33.77
2018-06-02T13:16:41.679Z,32.53
2018-06-02T13:19:09.322Z,30.00
2018-06-02T13:21:37.678Z,31.00
2018-06-02T13:24:05.365Z,29.57
2018-06-02T13:26:33.742Z,30.37
2018-06-02T13:29:02.120Z,28.20
2018-06-02T13:31:30.563Z,28.07
2018-06-02T13:33:58.239Z,30.03
2018-06-02T13:36:25.827Z,31.10
2018-06-02T13:38:54.220Z,29.67
2018-06-02T13:41:21.796Z,30.77
2018-06-02T13:43:49.403Z,30.27
2018-06-02T13:46:17.764Z,31.43
2018-06-02T13:48:45.415Z,30.77
2018-06-02T13:51:13.005Z,30.70
2018-06-02T13:53:41.406Z,31.07
2018-06-02T13:56:08.995Z,29.17
2018-06-02T13:58:36.615Z,32.60
2018-06-02T14:01:04.183Z,31.43
2018-06-02T14:03:31.771Z,33.27
2018-06-02T14:05:59.440Z,33.17
2018-06-02T14:08:27.052Z,31.37
2018-06-02T14:10:54.671Z,26.87
2018-06-02T14:13:22.331Z,27.30
2018-06-02T14:15:49.919Z,27.67
2018-06-02T14:18:19.131Z,26.63
2018-06-02T14:20:46.716Z,26.03
2018-06-02T14:23:14.356Z,22.03
2018-06-02T14:25:42.077Z,21.77
2018-06-02T14:28:09.612Z,22.77
2018-06-02T14:30:37.222Z,20.37
2018-06-02T14:33:05.588Z,18.97
2018-06-02T14:35:33.192Z,19.63
2018-06-02T14:38:00.823Z,20.57
2018-06-02T14:40:28.383Z,21.77
2018-06-02T14:42:56.068Z,21.40
2018-06-02T14:45:23.660Z,24.73
2018-06-02T14:47:51.256Z,22.00
2018-06-02T14:50:18.872Z,21.60
2018-06-02T14:52:46.442Z,20.10
2018-06-02T14:55:14.174Z,22.00
2018-06-02T14:57:41.732Z,22.97
2018-06-02T15:00:09.346Z,20.50
2018-06-02T15:02:37.708Z,22.93
2018-06-02T15:05:05.482Z,21.00
2018-06-02T15:07:33.888Z,20.90
2018-06-02T15:10:01.572Z,21.97
2018-06-02T15:12:29.182Z,20.60
2018-06-02T15:14:56.763Z,22.73
2018-06-02T15:17:24.394Z,22.03
2018-06-02T15:19:52.024Z,24.27
2018-06-02T15:22:19.651Z,26.50
2018-06-02T15:24:47.287Z,22.83
2018-06-02T15:27:15.605Z,22.00
2018-06-02T15:29:43.231Z,22.97
2018-06-02T15:32:10.812Z,28.80
2018-06-02T15:34:38.462Z,25.13
2018-06-02T15:37:06.048Z,21.53
2018-06-02T15:39:33.621Z,25.70
2018-06-02T15:42:01.214Z,24.20
2018-06-02T15:44:28.848Z,23.70
2018-06-02T15:46:56.436Z,24.77
2018-06-02T15:49:24.888Z,27.10
2018-06-02T15:51:52.495Z,26.17
2018-06-02T15:54:20.080Z,21.90
2018-06-02T15:56:47.699Z,22.00
2018-06-02T15:59:15.660Z,22.60
2018-06-02T16:01:44.127Z,23.10
2018-06-02T16:04:12.510Z,21.03
2018-06-02T16:06:40.875Z,24.13
2018-06-02T16:09:08.498Z,20.60
2018-06-02T16:11:36.083Z,22.20
2018-06-02T16:14:03.681Z,21.20
2018-06-02T16:16:31.278Z,21.23
2018-06-02T16:18:59.004Z,20.80
2018-06-02T16:21:26.582Z,20.37
2018-06-02T16:23:54.201Z,20.00
2018-06-02T16:26:22.551Z,19.17
2018-06-02T16:28:50.177Z,18.07
2018-06-02T16:31:17.756Z,21.23
2018-06-02T16:33:45.418Z,21.50
2018-06-02T16:36:13.075Z,20.33
2018-06-02T16:38:40.755Z,19.20
2018-06-02T16:41:08.447Z,20.17
2018-06-02T16:43:36.817Z,20.60
2018-06-02T16:46:04.424Z,21.53
2018-06-02T16:48:32.007Z,22.47
2018-06-02T16:50:59.618Z,27.70
2018-06-02T16:53:27.211Z,26.23
2018-06-02T16:55:54.938Z,26.07
2018-06-02T16:58:24.375Z,27.43
2018-06-02T17:00:51.938Z,26.17
2018-06-02T17:03:19.596Z,25.07
2018-06-02T17:05:47.247Z,25.90
2018-06-02T17:08:14.844Z,24.87
2018-06-02T17:10:43.303Z,24.73
2018-06-02T17:13:10.896Z,23.63
2018-06-02T17:15:39.288Z,21.40
2018-06-02T17:18:06.938Z,21.73
2018-06-02T17:20:34.587Z,23.63
2018-06-02T17:23:02.187Z,25.50
2018-06-02T17:25:29.808Z,22.93
2018-06-02T17:27:58.220Z,24.07
2018-06-02T17:30:25.827Z,24.47
2018-06-02T17:32:53.439Z,25.33
2018-06-02T17:35:21.056Z,23.70
2018-06-02T17:37:49.481Z,20.40
2018-06-02T17:40:17.099Z,22.17
2018-06-02T17:42:45.477Z,23.43
2018-06-02T17:45:13.916Z,23.77
2018-06-02T17:47:42.496Z,23.47
2018-06-02T17:50:10.106Z,22.47
2018-06-02T17:52:37.748Z,25.00
2018-06-02T17:55:05.405Z,22.40
2018-06-02T17:57:33.123Z,23.87
2018-06-02T18:00:00.698Z,22.87
2018-06-02T18:02:28.423Z,24.03
2018-06-02T18:04:56.016Z,21.90
2018-06-02T18:07:23.599Z,21.70
2018-06-02T18:09:51.218Z,22.53
2018-06-02T18:12:18.842Z,22.70
2018-06-02T18:14:47.202Z,21.30
2018-06-02T18:17:14.839Z,23.70
2018-06-02T18:19:42.457Z,26.97
2018-06-02T18:22:10.032Z,25.63
2018-06-02T18:24:37.649Z,24.30
2018-06-02T18:27:06.029Z,25.87
2018-06-02T18:29:34.435Z,25.17
2018-06-02T18:32:02.038Z,25.90
2018-06-02T18:34:29.693Z,25.17
2018-06-02T18:36:57.302Z,25.50
2018-06-02T18:39:24.917Z,26.83
2018-06-02T18:41:52.544Z,27.87
2018-06-02T18:44:20.234Z,27.43
2018-06-02T18:46:47.900Z,26.97
2018-06-02T18:49:15.540Z,26.17
2018-06-02T18:51:43.136Z,28.07
2018-06-02T18:54:11.604Z,27.20
2018-06-02T18:56:39.264Z,26.80
2018-06-02T18:59:06.869Z,28.80
2018-06-02T19:01:34.544Z,29.30
2018-06-02T19:04:02.113Z,29.57
2018-06-02T19:06:29.709Z,29.83
2018-06-02T19:08:58.048Z,31.50
2018-06-02T19:11:25.648Z,27.67
2018-06-02T19:13:54.031Z,29.27
2018-06-02T19:16:22.354Z,29.77
2018-06-02T19:18:50.013Z,31.60
2018-06-02T19:21:17.591Z,31.97
2018-06-02T19:23:45.184Z,28.00
2018-06-02T19:26:13.587Z,26.87
2018-06-02T19:28:41.245Z,30.10
2018-06-02T19:31:08.840Z,29.80
2018-06-02T19:33:36.469Z,31.60
2018-06-02T19:36:04.127Z,30.77
2018-06-02T19:38:31.738Z,29.03
2018-06-02T19:40:59.365Z,31.20
2018-06-02T19:43:27.004Z,36.00
2018-06-02T19:45:54.620Z,32.57
2018-06-02T19:48:22.197Z,33.77
2018-06-02T19:50:50.614Z,33.50
2018-06-02T19:53:18.215Z,36.17
2018-06-02T19:55:46.783Z,34.50
2018-06-02T19:58:14.412Z,34.70
2018-06-02T20:00:42.122Z,36.73
2018-06-02T20:03:09.703Z,33.27
2018-06-02T20:05:38.095Z,38.13
2018-06-02T20:08:05.685Z,40.23
2018-06-02T20:10:33.307Z,38.17
2018-06-02T20:13:00.931Z,35.97
2018-06-02T20:15:28.543Z,35.97
2018-06-02T20:17:56.148Z,37.57
2018-06-02T20:20:23.792Z,38.13
2018-06-02T20:22:51.384Z,38.00
2018-06-02T20:25:19.809Z,38.17
2018-06-02T20:27:47.529Z,39.83
2018-06-02T20:30:15.858Z,38.33
2018-06-02T20:32:43.481Z,37.53
2018-06-02T20:35:12.027Z,35.17
2018-06-02T20:37:39.649Z,38.70
2018-06-02T20:40:07.252Z,39.63
2018-06-02T20:42:34.830Z,37.87
2018-06-02T20:45:03.307Z,42.70
2018-06-02T20:47:31.731Z,44.43
2018-06-02T20:49:59.327Z,44.03
2018-06-02T20:52:26.966Z,47.47
2018-06-02T20:54:54.630Z,46.60
2018-06-02T20:57:22.217Z,49.93
2018-06-02T20:59:50.577Z,50.63
2018-06-02T21:02:18.142Z,52.23
2018-06-02T21:04:45.776Z,58.53
2018-06-02T21:07:13.350Z,55.97
2018-06-02T21:09:41.029Z,56.80
2018-06-02T21:12:08.652Z,48.97
2018-06-02T21:14:36.254Z,47.83
2018-06-02T21:17:03.828Z,48.50
2018-06-02T21:19:31.400Z,50.87
2018-06-02T21:21:59.762Z,52.30
2018-06-02T21:24:27.425Z,51.00
2018-06-02T21:26:55.012Z,47.73
2018-06-02T21:29:22.585Z,47.57
2018-06-02T21:31:50.193Z,52.43
2018-06-02T21:34:17.780Z,48.97
2018-06-02T21:36:46.497Z,57.07
2018-06-02T21:39:14.054Z,54.23
2018-06-02T21:41:41.694Z,48.70
2018-06-02T21:44:09.371Z,50.17
2018-06-02T21:46:36.983Z,49.80
2018-06-02T21:49:04.565Z,50.40
2018-06-02T21:51:32.151Z,51.13
2018-06-02T21:53:59.712Z,51.30
2018-06-02T21:56:27.355Z,54.90
2018-06-02T21:58:54.911Z,53.57
2018-06-02T22:01:22.570Z,56.83
2018-06-02T22:03:50.130Z,61.50
2018-06-02T22:06:17.747Z,62.27
2018-06-02T22:08:45.366Z,60.90
2018-06-02T22:11:13.003Z,59.60
2018-06-02T22:13:40.659Z,59.17
2018-06-02T22:16:08.258Z,55.57
2018-06-02T22:18:35.824Z,55.10
2018-06-02T22:21:04.174Z,55.90
2018-06-02T22:23:31.770Z,62.20
2018-06-02T22:25:59.345Z,56.57
2018-06-02T22:28:26.913Z,60.90
2018-06-02T22:30:54.570Z,63.70
2018-06-02T22:33:22.179Z,64.50
2018-06-02T22:35:49.807Z,56.37
2018-06-02T22:38:17.425Z,58.67
2018-06-02T22:40:45.791Z,66.23
2018-06-02T22:43:13.374Z,63.07
2018-06-02T22:45:41.041Z,62.50
2018-06-02T22:48:08.605Z,59.30
2018-06-02T22:50:36.230Z,69.47
2018-06-02T22:53:05.887Z,62.90
2018-06-02T22:55:33.499Z,62.60
2018-06-02T22:58:01.906Z,66.47
2018-06-02T23:00:29.517Z,71.93
2018-06-02T23:02:57.087Z,73.07
2018-06-02T23:05:24.637Z,79.77
2018-06-02T23:07:52.247Z,78.73
2018-06-02T23:10:19.935Z,77.60
2018-06-02T23:12:47.512Z,84.10
2018-06-02T23:15:15.139Z,72.50
2018-06-02T23:17:42.742Z,75.60
2018-06-02T23:20:10.339Z,74.50
2018-06-02T23:22:38.794Z,64.50
2018-06-02T23:25:07.187Z,65.43
2018-06-02T23:27:35.764Z,69.13
2018-06-02T23:30:04.066Z,76.07
2018-06-02T23:32:31.688Z,76.67
2018-06-02T23:34:59.390Z,67.70
2018-06-02T23:37:27.045Z,64.07
2018-06-02T23:39:54.614Z,63.70
2018-06-02T23:42:22.220Z,61.10
2018-06-02T23:44:49.837Z,62.70
2018-06-02T23:47:17.466Z,57.70
2018-06-02T23:49:45.116Z,55.97
2018-06-02T23:52:12.687Z,56.10
2018-06-02T23:54:40.290Z,54.37
2018-06-02T23:57:07.846Z,54.10
2018-06-02T23:59:35.468Z,55.50
